createdAt,value
2023-04-01T00:01:06.879Z,98888.50
2023-04-01T00:03:34.907Z,98890.97
2023-04-01T00:06:02.746Z,98888.16
2023-04-01T00:08:30.300Z,98888.81
2023-04-01T00:10:58.134Z,98885.31
2023-04-01T00:13:27.263Z,98883.41
2023-04-01T00:15:54.606Z,98884.97
2023-04-01T00:18:21.327Z,98883.19
2023-04-01T00:20:49.912Z,98878.19
2023-04-01T00:23:17.112Z,98886.34
2023-04-01T00:25:44.398Z,98882.72
2023-04-01T00:28:11.261Z,98885.44
2023-04-01T00:30:38.170Z,98881.94
2023-04-01T00:33:05.358Z,98882.94
2023-04-01T00:35:33.403Z,98885.19
2023-04-01T00:38:00.534Z,98885.50
2023-04-01T00:40:31.993Z,98890.03
2023-04-01T00:42:58.606Z,98880.44
2023-04-01T00:45:29.867Z,98875.22
2023-04-01T00:48:00.011Z,98868.53
2023-04-01T00:50:30.729Z,98873.38
2023-04-01T00:52:58.042Z,98882.19
2023-04-01T00:55:27.817Z,98877.56
2023-04-01T00:57:57.102Z,98877.66
2023-04-01T01:00:24.059Z,98878.69
2023-04-01T01:02:51.979Z,98875.63
2023-04-01T01:05:25.135Z,98881.16
2023-04-01T01:08:02.445Z,98882.38
2023-04-01T01:10:34.953Z,98878.44
2023-04-01T01:13:07.571Z,98877.75
2023-04-01T01:16:20.428Z,98876.16
2023-04-01T01:18:55.636Z,98877.66
2023-04-01T01:21:30.856Z,98878.97
2023-04-01T01:24:14.659Z,98880.09
2023-04-01T01:27:04.710Z,98875.59
2023-04-01T01:30:07.228Z,98878.31
2023-04-01T01:32:52.339Z,98870.03
2023-04-01T01:35:27.700Z,98881.56
2023-04-01T01:37:59.376Z,98872.84
2023-04-01T01:40:28.595Z,98872.56
2023-04-01T01:43:00.325Z,98872.22
2023-04-01T01:45:28.362Z,98876.34
2023-04-01T01:47:57.158Z,98877.47
2023-04-01T01:50:25.371Z,98878.44
2023-04-01T01:52:51.869Z,98875.75
2023-04-01T01:55:29.506Z,98878.44
2023-04-01T01:58:03.554Z,98879.38
2023-04-01T02:00:30.443Z,98878.38
2023-04-01T02:02:59.391Z,98882.34
2023-04-01T02:05:27.035Z,98876.00
2023-04-01T02:08:02.623Z,98879.63
2023-04-01T02:10:32.495Z,98875.47
2023-04-01T02:13:02.754Z,98874.66
2023-04-01T02:15:34.600Z,98878.03
2023-04-01T02:18:02.212Z,98878.03
2023-04-01T02:20:30.226Z,98876.81
2023-04-01T02:23:00.538Z,98876.81
2023-04-01T02:25:34.944Z,98874.66
2023-04-01T02:28:05.217Z,98880.22
2023-04-01T02:30:35.010Z,98877.25
2023-04-01T02:33:02.553Z,98883.13
2023-04-01T02:35:29.472Z,98880.75
2023-04-01T02:37:56.855Z,98881.56
2023-04-01T02:40:23.592Z,98885.28
2023-04-01T02:42:50.126Z,98890.81
2023-04-01T02:45:16.615Z,98882.56
2023-04-01T02:47:43.276Z,98882.91
2023-04-01T02:50:10.931Z,98884.66
2023-04-01T02:52:37.611Z,98885.59
2023-04-01T02:55:05.551Z,98877.59
2023-04-01T02:57:32.136Z,98894.88
2023-04-01T02:59:58.685Z,98886.50
2023-04-01T03:02:25.440Z,98890.03
2023-04-01T03:04:52.055Z,98891.50
2023-04-01T03:07:18.499Z,98884.59
2023-04-01T03:09:45.043Z,98893.41
2023-04-01T03:12:11.457Z,98886.59
2023-04-01T03:14:37.938Z,98886.59
2023-04-01T03:17:04.378Z,98893.28
2023-04-01T03:19:30.989Z,98894.25
2023-04-01T03:21:57.445Z,98891.38
2023-04-01T03:24:23.969Z,98891.50
2023-04-01T03:26:50.716Z,98893.63
2023-04-01T03:29:17.199Z,98888.50
2023-04-01T03:31:44.122Z,98887.06
2023-04-01T03:34:10.914Z,98894.06
2023-04-01T03:36:37.745Z,98900.06
2023-04-01T03:39:04.782Z,98897.72
2023-04-01T03:41:31.752Z,98902.06
2023-04-01T03:43:58.400Z,98895.38
2023-04-01T03:46:25.176Z,98901.28
2023-04-01T03:48:51.901Z,98899.84
2023-04-01T03:51:18.550Z,98900.97
2023-04-01T03:53:45.040Z,98901.75
2023-04-01T03:56:11.940Z,98913.88
2023-04-01T03:58:40.019Z,98899.31
2023-04-01T04:01:22.211Z,98906.44
2023-04-01T04:03:50.699Z,98905.66
2023-04-01T04:06:19.398Z,98909.94
2023-04-01T04:08:46.275Z,98913.00
2023-04-01T04:11:12.802Z,98914.13
2023-04-01T04:13:39.442Z,98910.28
2023-04-01T04:16:06.287Z,98915.84
2023-04-01T04:18:32.782Z,98919.03
2023-04-01T04:20:59.288Z,98920.16
2023-04-01T04:23:25.994Z,98916.56
2023-04-01T04:26:07.134Z,98918.47
2023-04-01T04:28:34.322Z,98928.53
2023-04-01T04:31:01.741Z,98921.41
2023-04-01T04:33:29.067Z,98924.31
2023-04-01T04:35:57.675Z,98931.47
2023-04-01T04:38:24.800Z,98925.09
2023-04-01T04:40:51.346Z,98930.72
2023-04-01T04:43:19.165Z,98938.06
2023-04-01T04:45:46.398Z,98938.88
2023-04-01T04:48:19.477Z,98947.69
2023-04-01T04:50:51.059Z,98938.75
2023-04-01T04:53:19.887Z,98934.13
2023-04-01T04:55:50.686Z,98948.03
2023-04-01T04:58:18.051Z,98938.28
2023-04-01T05:00:45.272Z,98941.47
2023-04-01T05:03:13.265Z,98950.09
2023-04-01T05:05:40.702Z,98945.78
2023-04-01T05:08:07.493Z,98959.34
2023-04-01T05:10:33.959Z,98951.38
2023-04-01T05:13:00.417Z,98953.13
2023-04-01T05:15:26.925Z,98949.72
2023-04-01T05:17:53.462Z,98948.81
2023-04-01T05:20:20.099Z,98955.22
2023-04-01T05:22:46.520Z,98960.94
2023-04-01T05:25:13.127Z,98955.94
2023-04-01T05:27:39.734Z,98961.84
2023-04-01T05:30:07.326Z,98962.44
2023-04-01T05:32:33.868Z,98963.72
2023-04-01T05:35:00.358Z,98957.94
2023-04-01T05:37:26.810Z,98965.75
2023-04-01T05:39:53.391Z,98968.94
2023-04-01T05:42:19.890Z,98969.25
2023-04-01T05:44:46.406Z,98965.56
2023-04-01T05:47:12.820Z,98968.84
2023-04-01T05:49:39.275Z,98968.78
2023-04-01T05:52:05.801Z,98966.78
2023-04-01T05:54:32.377Z,98967.59
2023-04-01T05:56:58.912Z,98964.06
2023-04-01T05:59:25.607Z,98974.59
2023-04-01T06:01:52.397Z,98970.22
2023-04-01T06:04:19.247Z,98975.31
2023-04-01T06:06:46.305Z,98972.44
2023-04-01T06:09:32.973Z,98973.22
2023-04-01T06:12:08.705Z,98983.75
2023-04-01T06:14:53.754Z,98989.63
2023-04-01T06:17:47.327Z,98974.16
2023-04-01T06:20:19.763Z,98991.06
2023-04-01T06:23:01.058Z,98989.09
2023-04-01T06:25:41.343Z,98987.06
2023-04-01T06:28:09.179Z,98977.47
2023-04-01T06:30:44.765Z,98992.31
2023-04-01T06:33:59.488Z,98996.97
2023-04-01T06:36:51.037Z,98996.97
2023-04-01T06:39:43.525Z,99002.53
2023-04-01T06:42:27.255Z,99004.34
2023-04-01T06:45:13.986Z,98993.25
2023-04-01T06:48:03.577Z,99006.63
2023-04-01T06:50:51.879Z,98994.41
2023-04-01T06:53:42.588Z,98990.91
2023-04-01T06:56:16.069Z,99000.66
2023-04-01T06:58:45.518Z,98999.16
2023-04-01T07:01:19.461Z,98994.44
2023-04-01T07:03:59.661Z,98999.28
2023-04-01T07:06:36.590Z,98989.78
2023-04-01T07:09:09.888Z,99003.81
2023-04-01T07:11:39.583Z,98994.19
2023-04-01T07:14:17.945Z,99004.28
2023-04-01T07:17:07.360Z,99003.28
2023-04-01T07:19:45.677Z,98999.19
2023-04-01T07:22:20.703Z,99001.03
2023-04-01T07:24:47.651Z,98997.84
2023-04-01T07:27:14.888Z,98999.53
2023-04-01T07:29:42.226Z,99007.25
2023-04-01T07:32:17.646Z,99005.88
2023-04-01T07:35:07.496Z,99007.81
2023-04-01T07:38:01.935Z,99010.84
2023-04-01T07:40:40.564Z,99014.69
2023-04-01T07:43:13.142Z,99011.88
2023-04-01T07:46:10.781Z,99016.84
2023-04-01T07:48:52.538Z,99028.88
2023-04-01T07:51:37.320Z,99020.94
2023-04-01T07:54:18.746Z,99028.00
2023-04-01T07:56:52.867Z,99025.06
2023-04-01T07:59:39.014Z,99020.75
2023-04-01T08:02:23.559Z,99030.03
2023-04-01T08:05:08.910Z,99025.28
2023-04-01T08:08:13.133Z,99032.53
2023-04-01T08:10:49.133Z,99034.13
2023-04-01T08:13:30.467Z,99034.69
2023-04-01T08:16:09.562Z,99036.63
2023-04-01T08:18:45.626Z,99033.69
2023-04-01T08:21:26.116Z,99036.16
2023-04-01T08:23:57.497Z,99039.44
2023-04-01T08:26:30.485Z,99041.13
2023-04-01T08:28:59.575Z,99042.63
2023-04-01T08:31:48.965Z,99043.97
2023-04-01T08:34:21.360Z,99045.44
2023-04-01T08:37:07.009Z,99042.16
2023-04-01T08:39:41.566Z,99048.88
2023-04-01T08:42:35.214Z,99043.84
2023-04-01T08:45:34.608Z,99045.19
2023-04-01T08:48:33.050Z,99048.22
2023-04-01T08:51:20.834Z,99043.31
2023-04-01T08:54:02.496Z,99054.75
2023-04-01T08:56:41.166Z,99046.50
2023-04-01T08:59:32.523Z,99052.28
2023-04-01T09:02:20.829Z,99037.16
2023-04-01T09:05:05.624Z,99050.78
2023-04-01T09:07:59.224Z,99049.22
2023-04-01T09:11:07.110Z,99045.69
2023-04-01T09:14:15.427Z,99039.53
2023-04-01T09:16:44.664Z,99043.50
2023-04-01T09:19:45.036Z,99048.16
2023-04-01T09:22:23.409Z,99058.03
2023-04-01T09:25:11.097Z,99053.88
2023-04-01T09:27:58.507Z,99048.22
2023-04-01T09:31:23.709Z,99052.63
2023-04-01T09:34:32.973Z,99050.06
2023-04-01T09:37:19.999Z,99053.00
2023-04-01T09:40:19.469Z,99052.78
2023-04-01T09:43:17.484Z,99049.03
2023-04-01T09:45:58.606Z,99054.38
2023-04-01T09:48:43.495Z,99059.28
2023-04-01T09:51:25.387Z,99062.13
2023-04-01T09:54:10.396Z,99065.06
2023-04-01T09:57:07.360Z,99062.91
2023-04-01T10:00:05.967Z,99066.75
2023-04-01T10:02:47.705Z,99068.88
2023-04-01T10:05:23.225Z,99065.13
2023-04-01T10:07:58.754Z,99069.84
2023-04-01T10:10:49.459Z,99069.84
2023-04-01T10:13:31.248Z,99076.38
2023-04-01T10:16:17.257Z,99080.75
2023-04-01T10:18:50.024Z,99077.69
2023-04-01T10:21:38.575Z,99076.31
2023-04-01T10:24:23.851Z,99076.81
2023-04-01T10:27:27.794Z,99071.41
2023-04-01T10:30:00.385Z,99079.00
2023-04-01T10:32:46.533Z,99068.84
2023-04-01T10:35:22.135Z,99072.56
2023-04-01T10:38:06.845Z,99071.31
2023-04-01T10:40:51.680Z,99067.66
2023-04-01T10:43:44.440Z,99068.75
2023-04-01T10:46:38.235Z,99072.13
2023-04-01T10:49:32.838Z,99065.59
2023-04-01T10:52:37.946Z,99066.19
2023-04-01T10:55:27.894Z,99075.22
2023-04-01T10:58:23.855Z,99077.97
2023-04-01T11:01:22.663Z,99081.81
2023-04-01T11:04:26.682Z,99083.41
2023-04-01T11:07:05.438Z,99070.34
2023-04-01T11:10:07.742Z,99082.59
2023-04-01T11:12:49.799Z,99081.84
2023-04-01T11:15:50.283Z,99081.91
2023-04-01T11:18:46.350Z,99080.78
2023-04-01T11:21:30.077Z,99082.72
2023-04-01T11:24:05.528Z,99081.13
2023-04-01T11:27:06.005Z,99083.19
2023-04-01T11:29:58.729Z,99088.34
2023-04-01T11:32:40.240Z,99088.00
2023-04-01T11:35:54.443Z,99090.56
2023-04-01T11:38:40.748Z,99101.22
2023-04-01T11:41:42.889Z,99091.47
2023-04-01T11:44:24.721Z,99093.88
2023-04-01T11:47:25.736Z,99097.84
2023-04-01T11:50:01.586Z,99104.00
2023-04-01T11:52:48.825Z,99101.34
2023-04-01T11:55:24.133Z,99106.69
2023-04-01T11:58:34.806Z,99116.69
2023-04-01T12:01:07.335Z,99109.31
2023-04-01T12:04:28.187Z,99112.06
2023-04-01T12:07:19.753Z,99114.94
2023-04-01T12:10:24.230Z,99116.09
2023-04-01T12:13:01.737Z,99111.94
2023-04-01T12:15:54.687Z,99113.06
2023-04-01T12:18:39.378Z,99115.53
2023-04-01T12:21:27.748Z,99124.53
2023-04-01T12:23:57.414Z,99124.06
2023-04-01T12:26:44.652Z,99127.13
2023-04-01T12:29:23.393Z,99131.44
2023-04-01T12:32:08.546Z,99129.06
2023-04-01T12:34:58.841Z,99128.97
2023-04-01T12:38:07.412Z,99133.84
2023-04-01T12:41:31.145Z,99144.53
2023-04-01T12:44:10.187Z,99143.06
2023-04-01T12:46:58.021Z,99142.00
2023-04-01T12:50:05.418Z,99136.34
2023-04-01T12:53:06.003Z,99141.13
2023-04-01T12:56:15.733Z,99149.50
2023-04-01T12:59:27.146Z,99154.50
2023-04-01T13:02:18.480Z,99154.84
2023-04-01T13:05:02.346Z,99154.72
2023-04-01T13:07:41.889Z,99156.28
2023-04-01T13:10:21.646Z,99154.16
2023-04-01T13:13:13.532Z,99163.59
2023-04-01T13:15:44.062Z,99156.91
2023-04-01T13:18:31.871Z,99157.69
2023-04-01T13:21:22.685Z,99162.13
2023-04-01T13:24:26.350Z,99155.53
2023-04-01T13:27:01.242Z,99160.19
2023-04-01T13:30:06.378Z,99164.59
2023-04-01T13:32:51.659Z,99166.44
2023-04-01T13:35:27.681Z,99170.38
2023-04-01T13:38:17.790Z,99169.16
2023-04-01T13:41:02.869Z,99167.66
2023-04-01T13:43:46.130Z,99179.03
2023-04-01T13:46:30.561Z,99185.13
2023-04-01T13:49:35.248Z,99176.06
2023-04-01T13:52:26.287Z,99183.44
2023-04-01T13:55:01.045Z,99178.56
2023-04-01T13:57:58.738Z,99176.88
2023-04-01T14:00:46.525Z,99183.22
2023-04-01T14:03:43.645Z,99183.34
2023-04-01T14:06:38.788Z,99178.22
2023-04-01T14:09:34.375Z,99185.06
2023-04-01T14:12:10.247Z,99182.66
2023-04-01T14:15:01.188Z,99181.88
2023-04-01T14:17:37.141Z,99191.34
2023-04-01T14:20:21.925Z,99193.06
2023-04-01T14:23:03.729Z,99192.84
2023-04-01T14:25:49.334Z,99192.63
2023-04-01T14:28:42.640Z,99193.69
2023-04-01T14:31:24.352Z,99198.34
2023-04-01T14:34:27.871Z,99200.94
2023-04-01T14:37:14.244Z,99198.34
2023-04-01T14:40:05.859Z,99203.78
2023-04-01T14:42:49.798Z,99204.91
2023-04-01T14:45:28.431Z,99202.06
2023-04-01T14:48:06.471Z,99199.78
2023-04-01T14:50:45.712Z,99202.28
2023-04-01T14:53:24.421Z,99201.16
2023-04-01T14:56:00.151Z,99204.44
2023-04-01T14:58:48.033Z,99199.41
2023-04-01T15:01:33.493Z,99212.69
2023-04-01T15:04:27.595Z,99205.31
2023-04-01T15:07:06.264Z,99208.50
2023-04-01T15:09:50.851Z,99205.00
2023-04-01T15:12:50.031Z,99214.75
2023-04-01T15:15:35.323Z,99218.97
2023-04-01T15:18:24.936Z,99227.94
2023-04-01T15:21:10.863Z,99217.16
2023-04-01T15:23:57.981Z,99226.25
2023-04-01T15:26:48.245Z,99224.31
2023-04-01T15:29:41.644Z,99226.78
2023-04-01T15:32:31.735Z,99226.38
2023-04-01T15:35:38.795Z,99224.59
2023-04-01T15:38:18.064Z,99229.78
2023-04-01T15:41:02.606Z,99231.63
2023-04-01T15:44:16.285Z,99234.88
2023-04-01T15:46:47.516Z,99246.00
2023-04-01T15:49:46.323Z,99246.34
2023-04-01T15:52:21.428Z,99248.41
2023-04-01T15:55:24.864Z,99242.59
2023-04-01T15:57:54.061Z,99247.06
2023-04-01T16:00:29.184Z,99250.91
2023-04-01T16:03:10.430Z,99258.41
2023-04-01T16:05:52.114Z,99260.47
2023-04-01T16:08:42.987Z,99269.28
2023-04-01T16:11:46.650Z,99271.88
2023-04-01T16:14:28.098Z,99276.22
2023-04-01T16:17:32.609Z,99273.59
2023-04-01T16:20:11.068Z,99276.41
2023-04-01T16:23:01.282Z,99281.84
2023-04-01T16:25:37.493Z,99286.81
2023-04-01T16:28:13.029Z,99286.03
2023-04-01T16:31:00.856Z,99289.75
2023-04-01T16:33:39.530Z,99294.25
2023-04-01T16:36:33.910Z,99302.50
2023-04-01T16:39:23.643Z,99306.56
2023-04-01T16:41:50.166Z,99315.06
2023-04-01T16:44:23.765Z,99314.41
2023-04-01T16:47:11.990Z,99312.81
2023-04-01T16:49:38.470Z,99331.16
2023-04-01T16:52:16.212Z,99322.69
2023-04-01T16:54:45.650Z,99323.47
2023-04-01T16:57:21.736Z,99327.53
2023-04-01T16:59:54.163Z,99325.66
2023-04-01T17:02:27.374Z,99327.81
2023-04-01T17:05:04.547Z,99333.28
2023-04-01T17:08:16.163Z,99342.94
2023-04-01T17:10:54.407Z,99341.03
2023-04-01T17:13:23.653Z,99342.16
2023-04-01T17:15:50.093Z,99345.56
2023-04-01T17:18:38.038Z,99354.19
2023-04-01T17:21:42.999Z,99353.91
2023-04-01T17:24:12.164Z,99364.31
2023-04-01T17:27:08.492Z,99358.41
2023-04-01T17:30:01.586Z,99370.53
2023-04-01T17:33:05.719Z,99361.91
2023-04-01T17:35:40.772Z,99378.59
2023-04-01T17:38:16.336Z,99375.06
2023-04-01T17:41:22.758Z,99381.31
2023-04-01T17:44:18.128Z,99388.50
2023-04-01T17:47:06.242Z,99392.19
2023-04-01T17:50:03.656Z,99400.97
2023-04-01T17:52:39.040Z,99399.56
2023-04-01T17:55:40.921Z,99397.63
2023-04-01T17:58:18.968Z,99402.59
2023-04-01T18:00:59.862Z,99414.28
2023-04-01T18:03:29.491Z,99414.28
2023-04-01T18:06:18.756Z,99419.22
2023-04-01T18:09:14.306Z,99421.63
2023-04-01T18:12:06.149Z,99433.31
2023-04-01T18:14:51.256Z,99439.22
2023-04-01T18:17:33.686Z,99436.81
2023-04-01T18:20:25.570Z,99442.25
2023-04-01T18:23:00.327Z,99440.22
2023-04-01T18:25:39.063Z,99441.78
2023-04-01T18:28:28.857Z,99449.94
2023-04-01T18:31:20.361Z,99447.38
2023-04-01T18:34:14.434Z,99458.25
2023-04-01T18:36:59.103Z,99471.69
2023-04-01T18:40:16.764Z,99467.84
2023-04-01T18:43:02.664Z,99478.72
2023-04-01T18:45:36.464Z,99482.44
2023-04-01T18:48:29.477Z,99485.78
2023-04-01T18:51:03.174Z,99492.03
2023-04-01T18:53:42.872Z,99489.63
2023-04-01T18:56:27.466Z,99504.53
2023-04-01T19:02:44.440Z,99505.47
2023-04-01T19:05:19.341Z,99516.19
2023-04-01T19:07:49.890Z,99516.19
2023-04-01T19:10:38.715Z,99524.03
2023-04-01T19:13:36.572Z,99528.66
2023-04-01T19:16:38.885Z,99530.91
2023-04-01T19:19:23.520Z,99536.19
2023-04-01T19:22:18.729Z,99543.06
2023-04-01T19:25:09.657Z,99536.03
2023-04-01T19:27:43.081Z,99544.03
2023-04-01T19:31:02.164Z,99549.78
2023-04-01T19:33:56.359Z,99541.31
2023-04-01T19:36:32.873Z,99546.88
2023-04-01T19:39:36.444Z,99562.53
2023-04-01T19:42:41.502Z,99566.97
2023-04-01T19:45:22.186Z,99564.88
2023-04-01T19:48:39.462Z,99580.03
2023-04-01T19:51:09.348Z,99581.91
2023-04-01T19:53:52.909Z,99587.47
2023-04-01T19:56:22.686Z,99590.16
2023-04-01T19:58:54.488Z,99579.59
2023-04-01T20:01:49.413Z,99600.66
2023-04-01T20:04:29.046Z,99601.88
2023-04-01T20:07:23.303Z,99610.03
2023-04-01T20:10:23.442Z,99618.63
2023-04-01T20:13:14.552Z,99622.13
2023-04-01T20:15:44.346Z,99635.50
2023-04-01T20:18:29.249Z,99628.63
2023-04-01T20:21:03.800Z,99629.44
2023-04-01T20:23:42.212Z,99640.09
2023-04-01T20:26:24.158Z,99641.94
2023-04-01T20:29:09.358Z,99654.78
2023-04-01T20:31:41.928Z,99656.97
2023-04-01T20:35:23.090Z,99661.84
2023-04-01T20:38:26.988Z,99665.16
2023-04-01T20:41:32.219Z,99677.66
2023-04-01T20:44:06.211Z,99673.41
2023-04-01T20:46:47.067Z,99673.00
2023-04-01T20:49:42.000Z,99684.66
2023-04-01T20:52:14.201Z,99684.97
2023-04-01T20:54:52.582Z,99691.50
2023-04-01T20:57:33.672Z,99695.84
2023-04-01T21:00:27.830Z,99697.75
2023-04-01T21:03:13.085Z,99702.53
2023-04-01T21:06:10.720Z,99706.34
2023-04-01T21:08:46.003Z,99711.69
2023-04-01T21:11:27.109Z,99716.59
2023-04-01T21:14:33.254Z,99720.91
2023-04-01T21:17:36.745Z,99731.16
2023-04-01T21:20:40.063Z,99722.81
2023-04-01T21:23:55.404Z,99744.38
2023-04-01T21:26:47.945Z,99748.19
2023-04-01T21:29:52.197Z,99747.75
2023-04-01T21:32:36.860Z,99748.69
2023-04-01T21:35:09.670Z,99756.81
2023-04-01T21:37:42.038Z,99762.09
2023-04-01T21:40:33.275Z,99771.66
2023-04-01T21:43:32.220Z,99769.53
2023-04-01T21:46:17.761Z,99777.34
2023-04-01T21:48:47.112Z,99787.44
2023-04-01T21:51:41.081Z,99786.94
2023-04-01T21:54:18.998Z,99785.72
2023-04-01T21:57:23.151Z,99795.03
2023-04-01T22:00:19.833Z,99803.25
2023-04-01T22:03:02.957Z,99810.84
2023-04-01T22:05:43.221Z,99813.84
2023-04-01T22:08:21.125Z,99805.81
2023-04-01T22:11:13.211Z,99813.28
2023-04-01T22:13:50.379Z,99819.66
2023-04-01T22:16:45.657Z,99825.56
2023-04-01T22:19:25.741Z,99837.94
2023-04-01T22:22:14.662Z,99845.97
2023-04-01T22:24:50.338Z,99852.47
2023-04-01T22:27:29.244Z,99854.38
2023-04-01T22:29:57.319Z,99855.47
2023-04-01T22:32:42.424Z,99866.63
2023-04-01T22:35:29.466Z,99872.03
2023-04-01T22:38:44.044Z,99880.56
2023-04-01T22:41:38.092Z,99883.31
2023-04-01T22:44:04.770Z,99883.09
2023-04-01T22:46:44.837Z,99893.69
2023-04-01T22:49:24.810Z,99896.13
2023-04-01T22:51:58.593Z,99890.00
2023-04-01T22:54:42.716Z,99906.41
2023-04-01T22:57:31.636Z,99911.09
2023-04-01T23:00:31.796Z,99902.63
2023-04-01T23:03:28.279Z,99915.84
2023-04-01T23:05:57.695Z,99914.75
2023-04-01T23:08:42.508Z,99921.25
2023-04-01T23:11:31.406Z,99928.63
2023-04-01T23:14:24.483Z,99934.53
2023-04-01T23:16:54.537Z,99934.06
2023-04-01T23:19:25.992Z,99940.31
2023-04-01T23:22:00.469Z,99949.00
2023-04-01T23:24:51.881Z,99956.59
2023-04-01T23:27:31.565Z,99960.31
2023-04-01T23:29:58.265Z,99956.63
2023-04-01T23:32:27.260Z,99971.75
2023-04-01T23:34:59.293Z,99977.19
2023-04-01T23:37:26.916Z,99979.38
2023-04-01T23:39:56.840Z,99984.78
2023-04-01T23:42:53.573Z,99989.69
2023-04-01T23:45:23.337Z,99995.34
2023-04-01T23:47:51.675Z,100004.84
2023-04-01T23:50:22.359Z,99999.47
2023-04-01T23:53:05.639Z,100008.38
2023-04-01T23:55:34.282Z,100020.03
2023-04-01T23:58:23.586Z,100018.38
